createdAt,value
2022-12-25T00:00:44.978Z,1.30
2022-12-25T00:05:47.603Z,1.20
2022-12-25T00:11:05.275Z,1.10
2022-12-25T00:16:16.025Z,1.20
2022-12-25T00:21:20.174Z,1.10
2022-12-25T00:26:25.527Z,1.30
2022-12-25T00:31:28.569Z,1.05
2022-12-25T00:36:36.258Z,1.00
2022-12-25T00:42:00.961Z,0.87
2022-12-25T00:47:03.864Z,0.80
2022-12-25T00:52:06.634Z,0.68
2022-12-25T00:57:09.619Z,0.85
2022-12-25T01:02:24.390Z,0.80
2022-12-25T01:07:27.617Z,0.93
2022-12-25T01:12:35.062Z,1.00
2022-12-25T01:17:37.796Z,0.80
2022-12-25T01:22:40.707Z,0.50
2022-12-25T01:27:43.865Z,0.80
2022-12-25T01:32:46.419Z,0.70
2022-12-25T01:37:50.012Z,0.80
2022-12-25T01:42:52.886Z,0.88
2022-12-25T01:47:55.500Z,0.70
2022-12-25T01:52:58.634Z,0.75
2022-12-25T01:58:01.417Z,0.90
2022-12-25T02:03:04.480Z,0.70
2022-12-25T02:08:12.755Z,0.77
2022-12-25T02:13:18.588Z,0.80
2022-12-25T02:18:56.556Z,0.80
2022-12-25T02:24:11.195Z,0.55
2022-12-25T02:29:30.825Z,1.20
2022-12-25T02:35:10.616Z,1.17
2022-12-25T02:40:21.297Z,0.82
2022-12-25T02:46:05.708Z,0.90
2022-12-25T02:51:30.138Z,1.10
2022-12-25T02:56:53.181Z,0.90
2022-12-25T03:02:15.250Z,1.00
2022-12-25T03:07:22.787Z,1.35
2022-12-25T03:12:39.223Z,1.20
2022-12-25T03:17:42.319Z,1.10
2022-12-25T03:23:05.223Z,1.20
2022-12-25T03:28:07.788Z,1.35
2022-12-25T03:33:45.103Z,1.25
2022-12-25T03:39:29.668Z,1.50
2022-12-25T03:44:53.597Z,1.40
2022-12-25T03:50:21.809Z,1.00
2022-12-25T03:55:44.619Z,1.50
2022-12-25T04:01:05.661Z,1.10
2022-12-25T04:06:27.084Z,1.63
2022-12-25T04:11:48.104Z,1.40
2022-12-25T04:17:09.472Z,1.60
2022-12-25T04:22:30.663Z,1.40
2022-12-25T04:27:51.687Z,0.90
2022-12-25T04:33:19.513Z,1.40
2022-12-25T04:38:22.398Z,1.30
2022-12-25T04:43:25.419Z,1.50
2022-12-25T04:48:30.350Z,1.10
2022-12-25T04:53:32.923Z,1.42
2022-12-25T04:58:35.761Z,0.90
2022-12-25T05:03:38.418Z,1.35
2022-12-25T05:08:41.065Z,0.95
2022-12-25T05:13:43.869Z,1.30
2022-12-25T05:18:49.566Z,0.90
2022-12-25T05:23:55.036Z,0.95
2022-12-25T05:28:57.695Z,1.13
2022-12-25T05:34:00.253Z,1.00
2022-12-25T05:39:02.839Z,0.90
2022-12-25T05:44:05.452Z,0.60
2022-12-25T05:49:08.578Z,0.60
2022-12-25T05:54:11.217Z,0.83
2022-12-25T05:59:13.733Z,0.87
2022-12-25T06:04:16.374Z,0.97
2022-12-25T06:09:19.374Z,0.60
2022-12-25T06:14:22.087Z,0.90
2022-12-25T06:19:24.866Z,0.70
2022-12-25T06:24:27.517Z,0.87
2022-12-25T06:29:30.097Z,0.97
2022-12-25T06:34:32.645Z,1.23
2022-12-25T06:39:35.301Z,0.83
2022-12-25T06:44:38.400Z,0.90
2022-12-25T06:49:40.951Z,0.90
2022-12-25T06:54:43.830Z,1.17
2022-12-25T06:59:52.970Z,0.90
2022-12-25T07:04:58.121Z,0.63
2022-12-25T07:10:00.756Z,1.00
2022-12-25T07:15:04.223Z,0.90
2022-12-25T07:20:07.593Z,0.90
2022-12-25T07:25:10.279Z,1.13
2022-12-25T07:30:13.432Z,1.20
2022-12-25T07:35:16.476Z,1.10
2022-12-25T07:40:19.123Z,1.30
2022-12-25T07:45:21.800Z,0.97
2022-12-25T07:50:24.522Z,0.90
2022-12-25T07:55:27.100Z,1.00
2022-12-25T08:00:32.878Z,0.90
2022-12-25T08:05:35.575Z,0.80
2022-12-25T08:10:38.182Z,1.00
2022-12-25T08:15:41.409Z,1.30
2022-12-25T08:20:44.147Z,1.23
2022-12-25T08:25:46.771Z,0.80
2022-12-25T08:30:49.475Z,1.10
2022-12-25T08:35:52.073Z,1.00
2022-12-25T08:40:54.690Z,1.40
2022-12-25T08:45:57.502Z,1.20
2022-12-25T08:51:00.992Z,1.00
2022-12-25T08:56:07.366Z,1.23
2022-12-25T09:01:10.960Z,1.23
2022-12-25T09:06:16.141Z,1.23
2022-12-25T09:11:20.786Z,1.10
2022-12-25T09:16:23.552Z,1.00
2022-12-25T09:21:26.274Z,1.02
2022-12-25T09:26:28.961Z,1.48
2022-12-25T09:31:31.733Z,1.20
2022-12-25T09:36:34.412Z,1.42
2022-12-25T09:41:52.012Z,1.33
2022-12-25T09:46:59.428Z,1.50
2022-12-25T09:52:09.013Z,1.40
2022-12-25T09:57:13.939Z,1.13
2022-12-25T10:02:37.588Z,1.60
2022-12-25T10:08:04.508Z,2.77
2022-12-25T10:13:33.600Z,1.48
2022-12-25T10:18:39.144Z,2.23
2022-12-25T10:23:47.622Z,1.50
2022-12-25T10:29:01.884Z,1.40
2022-12-25T10:34:06.321Z,1.40
2022-12-25T10:39:16.357Z,1.20
2022-12-25T10:44:21.681Z,2.25
2022-12-25T10:49:29.683Z,2.00
2022-12-25T10:54:37.560Z,2.37
2022-12-25T10:59:46.175Z,2.80
2022-12-25T11:04:49.700Z,1.40
2022-12-25T11:10:04.596Z,1.30
2022-12-25T11:15:33.956Z,1.70
2022-12-25T11:20:40.023Z,1.57
2022-12-25T11:25:45.017Z,1.23
2022-12-25T11:30:53.507Z,1.40
2022-12-25T11:35:58.554Z,1.17
2022-12-25T11:41:04.607Z,1.48
2022-12-25T11:46:39.249Z,2.10
2022-12-25T11:51:46.063Z,1.73
2022-12-25T11:56:50.121Z,1.98
2022-12-25T12:01:58.969Z,1.10
2022-12-25T12:07:27.698Z,1.30
2022-12-25T12:12:48.493Z,1.38
2022-12-25T12:17:51.615Z,1.50
2022-12-25T12:22:54.502Z,1.55
2022-12-25T12:28:05.383Z,1.90
2022-12-25T12:33:20.726Z,1.50
2022-12-25T12:38:24.783Z,1.75
2022-12-25T12:43:32.262Z,1.60
2022-12-25T12:48:41.466Z,1.88
2022-12-25T12:53:44.164Z,1.80
2022-12-25T12:58:51.239Z,2.05
2022-12-25T13:04:20.178Z,1.67
2022-12-25T13:10:00.801Z,1.50
2022-12-25T13:15:03.578Z,2.30
2022-12-25T13:20:17.777Z,2.08
2022-12-25T13:25:22.721Z,2.10
2022-12-25T13:30:25.735Z,1.85
2022-12-25T13:35:28.311Z,1.60
2022-12-25T13:40:31.035Z,1.85
2022-12-25T13:45:35.079Z,4.32
2022-12-25T13:50:37.898Z,3.50
2022-12-25T13:55:42.521Z,4.10
2022-12-25T14:00:53.359Z,4.10
2022-12-25T14:06:26.292Z,2.43
2022-12-25T14:11:31.395Z,2.83
2022-12-25T14:16:34.735Z,2.50
2022-12-25T14:21:41.875Z,2.83
2022-12-25T14:26:44.480Z,7.30
2022-12-25T14:31:47.684Z,5.20
2022-12-25T14:36:53.337Z,3.50
2022-12-25T14:41:56.668Z,3.00
2022-12-25T14:47:14.981Z,14.47
2022-12-25T14:52:26.754Z,23.97
2022-12-25T15:02:45.119Z,12.90
2022-12-25T15:08:18.541Z,26.47
2022-12-25T15:13:21.382Z,11.20
2022-12-25T15:18:26.459Z,10.43
2022-12-25T15:23:29.139Z,5.77
2022-12-25T15:28:31.672Z,6.50
2022-12-25T15:33:36.092Z,7.20
2022-12-25T15:38:40.628Z,5.57
2022-12-25T15:43:43.173Z,5.80
2022-12-25T15:48:45.745Z,5.60
2022-12-25T15:53:48.433Z,5.20
2022-12-25T15:58:51.095Z,5.37
2022-12-25T16:03:53.772Z,4.77
2022-12-25T16:08:56.614Z,4.73
2022-12-25T16:13:59.177Z,5.30
2022-12-25T16:19:01.784Z,5.17
2022-12-25T16:24:04.684Z,4.75
2022-12-25T16:29:07.880Z,4.73
2022-12-25T16:34:10.723Z,3.63
2022-12-25T16:39:13.275Z,3.67
2022-12-25T16:44:15.871Z,3.70
2022-12-25T16:49:18.479Z,3.17
2022-12-25T16:54:21.092Z,3.05
2022-12-25T16:59:23.687Z,3.93
2022-12-25T17:04:27.976Z,3.67
2022-12-25T17:09:31.522Z,2.60
2022-12-25T17:14:35.137Z,2.53
2022-12-25T17:19:38.214Z,2.88
2022-12-25T17:24:41.696Z,3.00
2022-12-25T17:29:45.170Z,2.63
2022-12-25T17:34:47.905Z,2.50
2022-12-25T17:39:50.451Z,2.83
2022-12-25T17:44:53.062Z,2.50
2022-12-25T17:49:55.686Z,3.53
2022-12-25T17:54:58.217Z,3.20
2022-12-25T18:00:00.824Z,2.20
2022-12-25T18:05:04.120Z,2.60
2022-12-25T18:10:07.419Z,2.28
2022-12-25T18:15:10.772Z,2.00
2022-12-25T18:20:13.459Z,2.40
2022-12-25T18:25:16.167Z,2.35
2022-12-25T18:30:19.584Z,1.30
2022-12-25T18:35:22.361Z,1.08
2022-12-25T18:40:24.946Z,1.63
2022-12-25T18:45:27.638Z,1.60
2022-12-25T18:50:30.666Z,1.50
2022-12-25T18:55:33.624Z,1.08
2022-12-25T19:00:36.276Z,0.98
2022-12-25T19:05:40.509Z,1.70
2022-12-25T19:10:44.510Z,1.77
2022-12-25T19:15:47.181Z,1.33
2022-12-25T19:20:49.954Z,1.92
2022-12-25T19:25:53.645Z,1.20
2022-12-25T19:30:59.755Z,1.07
2022-12-25T19:36:08.450Z,1.10
2022-12-25T19:41:17.127Z,1.53
2022-12-25T19:46:23.433Z,1.60
2022-12-25T19:51:28.912Z,1.30
2022-12-25T19:56:32.705Z,1.40
2022-12-25T20:01:35.656Z,1.00
2022-12-25T20:06:40.848Z,1.17
2022-12-25T20:11:43.672Z,1.00
2022-12-25T20:16:46.515Z,0.93
2022-12-25T20:21:49.106Z,1.10
2022-12-25T20:26:58.558Z,1.23
2022-12-25T20:32:01.724Z,1.10
2022-12-25T20:37:04.367Z,0.93
2022-12-25T20:42:08.567Z,1.42
2022-12-25T20:47:11.178Z,1.95
2022-12-25T20:52:13.829Z,4.43
2022-12-25T20:57:16.462Z,2.00
2022-12-25T21:02:34.593Z,3.03
2022-12-25T21:07:38.209Z,1.50
2022-12-25T21:12:40.799Z,1.23
2022-12-25T21:17:43.434Z,1.70
2022-12-25T21:22:46.127Z,1.23
2022-12-25T21:27:48.771Z,1.00
2022-12-25T21:33:09.937Z,1.20
2022-12-25T21:38:12.636Z,1.10
2022-12-25T21:43:15.297Z,1.02
2022-12-25T21:48:17.886Z,1.30
2022-12-25T21:53:20.913Z,1.70
2022-12-25T21:58:23.796Z,1.60
2022-12-25T22:03:26.506Z,1.17
2022-12-25T22:08:33.050Z,1.10
2022-12-25T22:13:54.330Z,1.20
2022-12-25T22:19:15.852Z,1.40
2022-12-25T22:24:18.386Z,1.53
2022-12-25T22:29:20.904Z,1.52
2022-12-25T22:34:24.156Z,1.35
2022-12-25T22:39:27.407Z,1.50
2022-12-25T22:44:32.688Z,1.50
2022-12-25T22:49:35.325Z,1.73
2022-12-25T22:54:38.370Z,1.80
2022-12-25T22:59:41.098Z,1.48
2022-12-25T23:04:43.611Z,1.60
2022-12-25T23:09:46.271Z,1.70
2022-12-25T23:14:48.894Z,2.03
2022-12-25T23:20:10.178Z,1.80
2022-12-25T23:25:33.952Z,1.80
2022-12-25T23:30:36.550Z,2.13
2022-12-25T23:35:39.629Z,1.90
2022-12-25T23:40:42.181Z,1.98
2022-12-25T23:45:44.720Z,2.15
2022-12-25T23:50:47.298Z,2.03
2022-12-25T23:55:55.693Z,1.90
